Camp Lake, WI (53109)

8:21 PM CST on February 06, 2016 (GMT -0600)
Center Lake | | Change Station
CLOSE
Current Station
Personal Weather Station
Location: Salem, WI
Elevation: 800 ft
Nearby Weather Stations

Elev 800 ft 42.53 °N, 88.12 °W | Updated 1 minute ago

Partly Cloudy
Partly Cloudy
33.8 °F
Feels Like 34 °F
N
1.0
Wind Variable Wind from SW
Gusts 4.0 mph

Today
High -- | Low -- °F
--% Chance of Precip.
Yesterday
High -- | Low -- °F
Precip. -- in
Pressure 30.13 in
Visibility 10.0 miles
Clouds Clear
Windchill 34 °F
Dew Point 30 °F
Humidity 87%
Rainfall Not available.
Snow Depth Not available.
7:01 AM 5:12 PM
Waning Crescent, 3% visible
METAR KENW 070153Z 23005KT 10SM CLR M02/M04 A3010 RMK AO2 SLP202 T10221044
Pressure 30.13 in
Visibility 10.0 miles
Clouds Clear
Windchill 34 °F
Dew Point 30 °F
Humidity 87%
Rainfall Not available.
Snow Depth Not available.
7:01 AM 5:12 PM
Waning Crescent, 3% visible
METAR KENW 070153Z 23005KT 10SM CLR M02/M04 A3010 RMK AO2 SLP202 T10221044

10-Day Weather Forecast

Almanac

Astronomy

Feb. 06, 2016 Rise Set
Actual Time
Civil Twilight
Nautical Twilight
Astronomical Twilight
Moon
Length of Visible Light
Length of Day
Tomorrow will be .
, % of the Moon is Illuminated

Today's Extremes

State Highs State Lows

Community

WunderPhotos

Upload Photos

1,891,139 photos uploaded!

WunderBlog® & News

Nearby

Air Quality

  Air Quality AQ Index Pollutant
Not available.

Snow Depth

Station Depth Elevation

Earthquake Activity

City Distance Mag. Time & Date
Minimum magnitude displayed is 2.5.

Coastal Water Temperatures

Place Temperature

Stations

Nearby Weather Stations

Station Location Temp. Windchill Dew Point Humidity Wind Precip. Elev Updated Type
                   

Watches & Warnings

There are currently no watches in effect.